気象予報士の航空気象 暑い春

*All archives   *Admin

スポンサーサイト

上記の広告は1ヶ月以上更新のないブログに表示されています。
新しい記事を書く事で広告が消せます。
--:--  |  スポンサー広告  |  EDIT  |  Top↑

2009.04.21 (Tue)

暑い春

「暑い春」初の真夏日 玖珠で30.3度
4月20日7時7分配信 西日本新聞


 九州地方は19日、高気圧に覆われ、各地で今年の最高気温を観測した。大分県玖珠町は30.3度、豊後大野市は30.2度と、九州で今年初めての真夏日。熊本県高森町では26.9度、南阿蘇村で23.3度と4月の観測史上最高を記録した。

 福岡管区気象台によると、各地の気温は、熊本県人吉市29.8度▽大分県日田市29.7度▽宮崎県西米良村29.4度▽鹿児島県伊佐市28.6度▽福岡県朝倉市28.3度▽佐賀県白石町27.5度▽長崎市25.7度‐など。7月下旬並みの気温になる場所もあったという。20日は低気圧の通過によって天気が崩れるため、気温は下がる見込み。

 福岡市早良区のシーサイドももち海浜公園では、水遊びを楽しむ親子の姿が目立ち、強い日差しの中、子どもたちが水を掛け合ったりしていた。


 20日の西日本はあっつあっつです。30度かよ。。。



かと思えば、羽田空港の今夜21時ごろは大荒れ。

211200Z 14012KT 4800 -SHRA BR FEW005 BKN009 BKN015 17/16 Q1003 RMK 1ST005 5ST009 6CU015 A2962 MOD TURB BTN FL260 AND FL210 15NM N AMI BY B772 AT 1156

211216Z 14011KT 3000 SHRA BR FEW004 BKN008 BKN015 18/16 Q1002 RMK 1ST004 5ST008 6CU015 A2961 MOD TURB BTN FL250 AND FL210 15NM N AMI BY B737 AT 1206

211230Z 15006KT 2800 SHRA BR FEW003 BKN007 BKN012 18/17 Q1003 RMK 2ST003 6ST007 7CU012 A2962

211233Z 15006KT 2000 +SHRA BR FEW003 BKN007 BKN012 18/17 Q1003 RMK 2ST003 6ST007 7CU012 A2962

211243Z 14007KT 2000 R34L/1800D R22/P1800N R16L/1700D +SHRA BR FEW002 SCT005 BKN007 18/17 Q1002 RMK 1ST002 3ST005 6ST007 A2961

211246Z 14008KT 2000 R34L/1800U R22/P1800N R16L/1800D +SHRA BR FEW002 SCT005 BKN007 17/16 Q1002 RMK 1ST002 3ST005 6ST007 A2960

211248Z 13008KT 2500 R34L/1800U R22/P1800N R16L/1700U +SHRA BR FEW002 SCT005 BKN007 17/16 Q1002 RMK 1ST002 3ST005 6ST007 A2960

 地方からの最終便が到着する時間帯です。揺れたでしょうね。お疲れ様です。


ブログランキングに参加しています。
にほんブログ村 環境ブログ 天気・気象学へ
にほんブログ村
応援クリックをおねがします。


以下、アフィリエイトサイトです。





スポンサーサイト
23:41  |  時事  |  TB(0)  |  CM(0)  |  EDIT  |  Top↑

コメントを投稿する


 管理者だけに表示  (非公開コメント投稿可能)

▲PageTop

この記事のトラックバックURL

→http://weathereucalyptus.blog115.fc2.com/tb.php/87-8d4bc65f
この記事にトラックバックする(FC2ブログユーザー)

この記事へのトラックバック

▲PageTop

 | BLOGTOP | 
上記広告は1ヶ月以上更新のないブログに表示されています。新しい記事を書くことで広告を消せます。